Time;durP1;ratioP1;P1;durP2;ratioP2;P2;SDS_P1;SDS_P2;PMS_P1;PMS_P2;Temp;Humidity;BMP_temperature;BMP_pressure;BME280_temperature;BME280_humidity;BME280_pressure;Samples;Min_cycle;Max_cycle;Signal;HPM_P1;HPM_P2
2022/01/19 00:01:23;;;;;;;21.63;13.55;;;;;;;;;;5035719;28;20037;-57
2022/01/19 00:03:49;;;;;;;23.92;12.93;;;;;;;;;;5021739;28;20029;-57
2022/01/19 00:06:15;;;;;;;21.60;12.43;;;;;;;;;;5019770;28;20033;-58
2022/01/19 00:08:41;;;;;;;19.63;11.88;;;;;;;;;;5026850;28;20470;-58
2022/01/19 00:11:07;;;;;;;24.92;12.30;;;;;;;;;;5023350;28;20482;-58
2022/01/19 00:13:33;;;;;;;27.48;13.23;;;;;;;;;;5028304;28;20040;-58
2022/01/19 00:15:58;;;;;;;22.10;12.48;;;;;;;;;;5020092;28;20037;-58
2022/01/19 00:18:25;;;;;;;19.30;12.80;;;;;;;;;;5026691;28;20036;-59
2022/01/19 00:20:53;;;;;;;24.15;12.95;;;;;;;;;;5021205;28;20053;-57
2022/01/19 00:23:20;;;;;;;16.88;11.40;;;;;;;;;;5018879;28;20037;-58
2022/01/19 00:25:48;;;;;;;21.33;11.90;;;;;;;;;;5020847;28;20022;-59
2022/01/19 00:28:14;;;;;;;22.63;11.88;;;;;;;;;;5015025;28;20080;-58
2022/01/19 00:30:40;;;;;;;18.45;11.52;;;;;;;;;;5020839;28;20931;-59
2022/01/19 00:33:06;;;;;;;20.75;12.20;;;;;;;;;;5022617;28;20105;-58
2022/01/19 00:35:36;;;;;;;21.75;11.98;;;;;;;;;;5021991;28;20119;-58
2022/01/19 00:38:07;;;;;;;19.77;12.52;;;;;;;;;;5020944;28;20479;-56
2022/01/19 00:40:35;;;;;;;19.15;11.95;;;;;;;;;;5026932;28;20036;-59
2022/01/19 00:43:00;;;;;;;21.48;12.18;;;;;;;;;;5020233;28;20495;-59
2022/01/19 00:45:27;;;;;;;27.30;12.13;;;;;;;;;;5025678;28;20462;-58
2022/01/19 00:47:52;;;;;;;21.50;12.70;;;;;;;;;;5022381;28;20052;-59
2022/01/19 00:50:27;;;;;;;21.73;13.27;;;;;;;;;;5019463;28;20065;-58
2022/01/19 00:52:53;;;;;;;20.58;13.52;;;;;;;;;;5025088;28;20021;-58
2022/01/19 00:55:23;;;;;;;22.85;13.65;;;;;;;;;;5026645;28;20041;-58
2022/01/19 00:57:49;;;;;;;19.63;13.05;;;;;;;;;;5025151;28;20033;-57
2022/01/19 01:00:22;;;;;;;21.25;12.90;;;;;;;;;;5026411;28;20192;-57
2022/01/19 01:02:48;;;;;;;24.60;13.13;;;;;;;;;;5018632;28;20060;-59
2022/01/19 01:05:14;;;;;;;19.50;12.88;;;;;;;;;;5013690;28;20061;-57
2022/01/19 01:07:40;;;;;;;24.05;13.10;;;;;;;;;;5018496;28;20053;-56
2022/01/19 01:10:08;;;;;;;20.10;13.80;;;;;;;;;;5023179;28;20477;-59
2022/01/19 01:12:51;;;;;;;22.38;13.45;;;;;;;;;;5020650;28;20378;-57
2022/01/19 01:15:46;;;;;;;26.85;13.73;;;;;;;;;;5020993;28;20029;-58
2022/01/19 01:18:21;;;;;;;25.88;13.65;;;;;;;;;;5020097;28;20112;-58
2022/01/19 01:20:49;;;;;;;24.15;13.27;;;;;;;;;;5023631;28;20038;-57
2022/01/19 01:23:16;;;;;;;19.63;12.23;;;;;;;;;;5023722;28;20029;-57
2022/01/19 01:25:42;;;;;;;20.13;12.60;;;;;;;;;;5015358;28;20042;-55
2022/01/19 01:28:08;;;;;;;25.60;12.77;;;;;;;;;;5017978;28;20099;-58
2022/01/19 01:30:35;;;;;;;18.60;12.40;;;;;;;;;;5023085;28;20030;-59
2022/01/19 01:33:02;;;;;;;21.45;12.55;;;;;;;;;;5026103;28;20480;-57
2022/01/19 01:35:28;;;;;;;21.70;13.32;;;;;;;;;;5028640;28;20029;-56
2022/01/19 01:37:54;;;;;;;21.00;13.27;;;;;;;;;;5027023;28;20025;-57
2022/01/19 01:40:22;;;;;;;21.88;11.93;;;;;;;;;;5029975;28;20026;-57
2022/01/19 01:42:48;;;;;;;25.45;12.57;;;;;;;;;;5027638;28;20030;-56
2022/01/19 01:45:16;;;;;;;27.55;13.85;;;;;;;;;;5026326;28;20028;-56
2022/01/19 01:47:51;;;;;;;18.90;12.50;;;;;;;;;;5025407;28;20455;-56
2022/01/19 01:55:27;;;;;;;21.52;13.35;;;;;;;;;;5023555;28;20390;-59
2022/01/19 01:57:53;;;;;;;25.83;13.27;;;;;;;;;;5027549;28;20033;-57
2022/01/19 02:00:24;;;;;;;18.73;13.20;;;;;;;;;;5021829;28;20029;-58
2022/01/19 02:02:50;;;;;;;20.17;13.07;;;;;;;;;;5025342;28;20067;-57
2022/01/19 02:05:17;;;;;;;22.20;13.10;;;;;;;;;;5020057;28;20060;-58
2022/01/19 02:10:45;;;;;;;22.15;13.32;;;;;;;;;;5027663;28;20032;-58
2022/01/19 02:21:45;;;;;;;15.38;11.02;;;;;;;;;;5021995;28;20035;-58
2022/01/19 02:24:18;;;;;;;18.30;11.30;;;;;;;;;;5024456;28;20116;-56
2022/01/19 02:40:27;;;;;;;19.17;10.73;;;;;;;;;;5028500;28;20110;-58
2022/01/19 02:43:22;;;;;;;22.17;12.07;;;;;;;;;;5023057;28;20482;-54
2022/01/19 02:51:09;;;;;;;20.15;11.40;;;;;;;;;;5025503;28;20087;-57
2022/01/19 02:53:36;;;;;;;23.00;11.15;;;;;;;;;;5026198;28;20025;-58
2022/01/19 02:56:08;;;;;;;18.30;10.63;;;;;;;;;;5025116;28;20041;-57
2022/01/19 02:58:39;;;;;;;19.65;11.15;;;;;;;;;;5025740;28;20036;-58
2022/01/19 03:09:18;;;;;;;18.65;12.60;;;;;;;;;;5023114;28;20028;-55
2022/01/19 03:11:44;;;;;;;21.50;12.43;;;;;;;;;;5024045;28;20042;-58
2022/01/19 03:14:09;;;;;;;19.92;11.75;;;;;;;;;;5021898;28;20033;-59
2022/01/19 03:16:35;;;;;;;19.33;12.00;;;;;;;;;;5025646;28;20040;-59
2022/01/19 03:19:02;;;;;;;18.30;11.70;;;;;;;;;;5025190;28;20056;-56
2022/01/19 03:21:28;;;;;;;24.52;12.07;;;;;;;;;;5023915;28;20116;-58
2022/01/19 03:23:54;;;;;;;22.65;11.70;;;;;;;;;;5023329;28;20049;-57
2022/01/19 03:26:20;;;;;;;23.23;12.32;;;;;;;;;;5027842;28;20177;-58
2022/01/19 03:28:46;;;;;;;17.98;11.75;;;;;;;;;;5024666;28;20053;-59
2022/01/19 03:31:12;;;;;;;14.90;11.05;;;;;;;;;;5024653;28;20552;-59
2022/01/19 03:33:38;;;;;;;20.67;11.25;;;;;;;;;;5025504;28;20037;-57
2022/01/19 03:36:04;;;;;;;18.50;10.80;;;;;;;;;;5022477;28;20044;-59
2022/01/19 03:38:30;;;;;;;19.63;11.60;;;;;;;;;;5023155;28;20389;-58
2022/01/19 03:40:56;;;;;;;14.85;11.05;;;;;;;;;;5021133;28;20029;-59
2022/01/19 03:43:21;;;;;;;21.40;10.65;;;;;;;;;;5018767;28;20033;-59
2022/01/19 03:45:56;;;;;;;18.65;11.27;;;;;;;;;;5026031;28;20025;-57
2022/01/19 03:51:00;;;;;;;22.13;11.23;;;;;;;;;;5024150;28;20080;-58
2022/01/19 03:53:26;;;;;;;21.73;10.68;;;;;;;;;;5022394;28;20072;-58
2022/01/19 03:55:52;;;;;;;17.38;10.55;;;;;;;;;;5016315;28;20033;-58
2022/01/19 03:58:17;;;;;;;18.13;10.90;;;;;;;;;;5022756;28;20108;-59
2022/01/19 04:00:45;;;;;;;18.33;10.90;;;;;;;;;;5022318;28;20064;-58
2022/01/19 04:03:15;;;;;;;18.92;11.25;;;;;;;;;;5014618;28;20117;-58
2022/01/19 04:05:56;;;;;;;20.17;11.77;;;;;;;;;;5021465;28;20485;-58
2022/01/19 04:08:22;;;;;;;16.23;10.25;;;;;;;;;;5019559;28;20037;-56
2022/01/19 04:10:48;;;;;;;17.88;10.45;;;;;;;;;;5025010;28;20048;-57
2022/01/19 04:15:53;;;;;;;16.52;10.32;;;;;;;;;;5024805;28;20045;-58
2022/01/19 04:18:20;;;;;;;18.23;9.48;;;;;;;;;;5017179;28;20108;-59
2022/01/19 04:24:01;;;;;;;19.15;9.57;;;;;;;;;;4979141;28;20158;-56
2022/01/19 04:26:27;;;;;;;16.02;10.27;;;;;;;;;;4982375;28;20046;-56
2022/01/19 04:28:53;;;;;;;16.58;9.65;;;;;;;;;;4984571;28;20060;-57
2022/01/19 04:31:19;;;;;;;17.17;9.65;;;;;;;;;;4986655;28;20040;-57
2022/01/19 04:33:45;;;;;;;18.58;9.65;;;;;;;;;;4984530;28;20049;-57
2022/01/19 04:36:28;;;;;;;18.42;9.10;;;;;;;;;;4988747;28;20050;-55
2022/01/19 05:04:10;;;;;;;43.10;21.55;;;;;;;;;;4984743;28;20088;-57
2022/01/19 05:06:40;;;;;;;39.72;20.83;;;;;;;;;;4985887;28;20047;-58
2022/01/19 05:09:11;;;;;;;30.95;19.13;;;;;;;;;;4997164;28;20066;-58
2022/01/19 05:14:21;;;;;;;26.33;16.65;;;;;;;;;;4993214;28;20121;-58
2022/01/19 05:16:47;;;;;;;19.33;13.07;;;;;;;;;;4995914;28;20509;-55
2022/01/19 05:19:13;;;;;;;33.92;18.42;;;;;;;;;;4994030;28;20038;-59
2022/01/19 05:21:39;;;;;;;29.00;19.75;;;;;;;;;;4989779;28;20515;-58
2022/01/19 05:24:07;;;;;;;33.22;20.63;;;;;;;;;;4992808;28;20504;-58
2022/01/19 05:26:35;;;;;;;30.83;20.08;;;;;;;;;;4992586;28;20387;-55
2022/01/19 05:29:01;;;;;;;21.08;14.40;;;;;;;;;;4995586;28;20037;-57
2022/01/19 05:31:27;;;;;;;18.55;10.68;;;;;;;;;;4994428;28;20045;-58
2022/01/19 05:33:53;;;;;;;22.85;10.65;;;;;;;;;;4986066;28;20465;-58
2022/01/19 05:36:19;;;;;;;19.15;9.70;;;;;;;;;;4984983;28;20045;-59
2022/01/19 05:38:45;;;;;;;15.13;9.68;;;;;;;;;;4985007;28;20031;-57
2022/01/19 05:41:11;;;;;;;16.08;10.50;;;;;;;;;;4990092;28;20030;-55
2022/01/19 05:43:37;;;;;;;16.73;9.73;;;;;;;;;;4984215;28;20044;-59
2022/01/19 05:46:03;;;;;;;15.77;9.88;;;;;;;;;;4984009;28;20903;-58
2022/01/19 05:48:28;;;;;;;19.02;9.32;;;;;;;;;;4990341;28;20509;-58
2022/01/19 05:50:54;;;;;;;19.73;9.55;;;;;;;;;;4990136;28;20052;-59
2022/01/19 05:53:20;;;;;;;18.35;9.73;;;;;;;;;;4988728;28;20038;-56
2022/01/19 05:55:46;;;;;;;14.30;9.35;;;;;;;;;;4983225;28;20037;-59
2022/01/19 05:58:12;;;;;;;21.27;11.05;;;;;;;;;;4983617;28;20028;-59
2022/01/19 06:00:38;;;;;;;23.67;10.85;;;;;;;;;;4983250;28;20034;-59
2022/01/19 06:03:04;;;;;;;15.35;8.95;;;;;;;;;;4995018;28;20137;-58
2022/01/19 06:05:31;;;;;;;16.27;9.65;;;;;;;;;;4984636;28;20030;-56
2022/01/19 06:08:16;;;;;;;17.98;9.38;;;;;;;;;;4984667;28;20034;-56
2022/01/19 06:10:43;;;;;;;15.30;9.40;;;;;;;;;;4981595;28;20026;-59
2022/01/19 06:13:10;;;;;;;15.27;8.90;;;;;;;;;;4986524;28;20373;-59
2022/01/19 06:15:36;;;;;;;18.70;9.07;;;;;;;;;;4988676;28;20034;-59
2022/01/19 06:18:02;;;;;;;18.20;9.95;;;;;;;;;;4985035;28;20038;-59
2022/01/19 06:20:29;;;;;;;18.17;9.68;;;;;;;;;;4991630;28;20080;-57
2022/01/19 06:22:55;;;;;;;12.90;8.85;;;;;;;;;;4986086;28;20050;-60
2022/01/19 06:25:21;;;;;;;18.83;9.50;;;;;;;;;;4989481;28;20474;-59
2022/01/19 06:27:46;;;;;;;17.83;9.18;;;;;;;;;;4989410;28;20061;-57
2022/01/19 06:30:13;;;;;;;15.73;8.95;;;;;;;;;;4986653;28;20085;-57
2022/01/19 06:32:40;;;;;;;15.05;9.23;;;;;;;;;;4988039;28;20033;-58
2022/01/19 06:35:06;;;;;;;13.43;9.05;;;;;;;;;;4988912;28;20054;-59
2022/01/19 06:37:32;;;;;;;14.00;8.93;;;;;;;;;;4984032;28;20041;-58
2022/01/19 06:39:58;;;;;;;15.65;9.82;;;;;;;;;;4988701;28;20026;-59
2022/01/19 06:42:24;;;;;;;14.90;9.50;;;;;;;;;;4986906;28;20074;-59
2022/01/19 06:44:50;;;;;;;17.65;9.88;;;;;;;;;;4985683;28;20026;-59
2022/01/19 06:47:16;;;;;;;21.73;10.70;;;;;;;;;;4984924;28;20050;-59
2022/01/19 06:49:41;;;;;;;23.65;10.25;;;;;;;;;;4984291;28;20045;-58
2022/01/19 06:52:07;;;;;;;16.13;9.15;;;;;;;;;;4985257;28;20061;-59
2022/01/19 06:54:33;;;;;;;15.95;10.52;;;;;;;;;;4988396;28;20069;-58
2022/01/19 06:56:59;;;;;;;15.63;8.63;;;;;;;;;;4988678;28;20038;-59
2022/01/19 06:59:24;;;;;;;13.95;9.75;;;;;;;;;;4992657;28;20477;-57
2022/01/19 07:01:50;;;;;;;19.40;10.48;;;;;;;;;;4988093;28;20109;-59
2022/01/19 07:04:17;;;;;;;16.05;10.32;;;;;;;;;;4983446;28;20026;-59
2022/01/19 07:06:43;;;;;;;13.50;9.48;;;;;;;;;;4985287;28;20048;-59
2022/01/19 07:09:09;;;;;;;16.45;9.40;;;;;;;;;;4988150;28;20614;-59
2022/01/19 07:11:36;;;;;;;19.10;9.88;;;;;;;;;;4987454;28;20062;-59
2022/01/19 07:14:04;;;;;;;20.90;9.27;;;;;;;;;;4993786;28;20532;-59
2022/01/19 07:16:29;;;;;;;16.90;9.90;;;;;;;;;;4982813;28;20479;-58
2022/01/19 07:18:55;;;;;;;19.00;9.80;;;;;;;;;;4984788;28;20045;-58
2022/01/19 07:21:21;;;;;;;21.13;11.35;;;;;;;;;;4991510;28;20552;-56
2022/01/19 07:23:47;;;;;;;20.40;12.20;;;;;;;;;;4983002;28;20085;-58
2022/01/19 07:26:12;;;;;;;17.08;10.80;;;;;;;;;;4983751;28;20057;-55
2022/01/19 07:28:38;;;;;;;25.98;13.27;;;;;;;;;;4994348;28;20412;-57
2022/01/19 07:31:03;;;;;;;22.52;10.70;;;;;;;;;;4981894;28;20087;-56
2022/01/19 07:33:29;;;;;;;43.33;20.70;;;;;;;;;;4985841;28;25343;-54
2022/01/19 07:35:55;;;;;;;29.95;16.40;;;;;;;;;;4988047;28;20502;-56
2022/01/19 07:38:23;;;;;;;30.67;18.08;;;;;;;;;;4983371;28;20053;-58
2022/01/19 07:40:50;;;;;;;17.50;10.18;;;;;;;;;;4983202;28;20034;-56
2022/01/19 07:43:16;;;;;;;22.90;10.35;;;;;;;;;;4985413;28;20076;-55
2022/01/19 07:45:41;;;;;;;13.07;9.30;;;;;;;;;;4986254;28;20026;-57
2022/01/19 07:48:07;;;;;;;32.45;20.35;;;;;;;;;;4985490;28;20038;-57
2022/01/19 07:50:33;;;;;;;20.73;10.20;;;;;;;;;;4981959;28;21883;-58
2022/01/19 07:52:59;;;;;;;16.88;9.27;;;;;;;;;;4984022;28;20030;-57
2022/01/19 07:55:25;;;;;;;14.50;10.48;;;;;;;;;;4983909;28;20410;-54
2022/01/19 07:57:51;;;;;;;12.18;9.25;;;;;;;;;;4993683;28;20026;-56
2022/01/19 08:00:18;;;;;;;17.25;9.85;;;;;;;;;;4980096;28;20030;-58
2022/01/19 08:02:49;;;;;;;15.18;9.20;;;;;;;;;;4984700;28;20026;-56
2022/01/19 08:05:16;;;;;;;15.75;9.20;;;;;;;;;;4990970;28;20064;-56
2022/01/19 08:07:42;;;;;;;23.15;9.48;;;;;;;;;;4983360;28;20030;-59
2022/01/19 08:10:09;;;;;;;18.85;9.38;;;;;;;;;;4985573;28;20088;-58
2022/01/19 08:12:35;;;;;;;14.82;10.40;;;;;;;;;;4984150;28;20983;-57
2022/01/19 08:15:02;;;;;;;17.63;9.57;;;;;;;;;;4989487;28;20023;-58
2022/01/19 08:17:29;;;;;;;17.02;9.70;;;;;;;;;;4982346;28;20026;-54
2022/01/19 08:19:56;;;;;;;19.73;10.85;;;;;;;;;;4986899;28;20644;-59
2022/01/19 08:22:23;;;;;;;18.05;10.35;;;;;;;;;;4980007;28;20132;-54
2022/01/19 08:24:49;;;;;;;24.80;11.75;;;;;;;;;;4981449;28;20100;-58
2022/01/19 08:27:15;;;;;;;32.22;20.17;;;;;;;;;;4987128;28;20514;-58
2022/01/19 08:29:41;;;;;;;24.63;15.75;;;;;;;;;;4989855;28;20026;-54
2022/01/19 08:32:07;;;;;;;16.02;11.77;;;;;;;;;;4998286;28;20030;-59
2022/01/19 08:34:33;;;;;;;24.50;14.95;;;;;;;;;;4982931;28;20113;-54
2022/01/19 08:36:59;;;;;;;22.80;14.73;;;;;;;;;;4978133;28;20034;-58
2022/01/19 08:39:26;;;;;;;29.92;15.95;;;;;;;;;;4982801;28;20477;-57
2022/01/19 08:41:52;;;;;;;15.38;9.73;;;;;;;;;;4981345;28;20504;-58
2022/01/19 08:44:20;;;;;;;19.50;12.88;;;;;;;;;;4982438;28;20045;-58
2022/01/19 08:46:45;;;;;;;14.25;9.85;;;;;;;;;;4987049;28;21008;-56
2022/01/19 08:49:12;;;;;;;17.75;9.73;;;;;;;;;;4985777;28;20030;-55
2022/01/19 08:51:38;;;;;;;18.90;11.18;;;;;;;;;;4982566;28;20034;-58
2022/01/19 08:54:04;;;;;;;21.58;13.38;;;;;;;;;;4979214;28;20038;-55
2022/01/19 08:56:30;;;;;;;29.58;10.85;;;;;;;;;;4981889;28;20065;-55
2022/01/19 08:58:56;;;;;;;16.55;11.25;;;;;;;;;;4980388;28;20038;-56
2022/01/19 09:01:22;;;;;;;20.92;10.48;;;;;;;;;;4981669;28;20060;-57
2022/01/19 09:03:48;;;;;;;17.77;9.40;;;;;;;;;;4983221;28;20390;-54
2022/01/19 09:06:14;;;;;;;18.30;12.55;;;;;;;;;;4993031;28;20022;-55
2022/01/19 09:08:40;;;;;;;19.98;11.77;;;;;;;;;;4991207;28;20089;-58
2022/01/19 09:11:06;;;;;;;14.77;8.85;;;;;;;;;;4984177;28;20054;-55
2022/01/19 09:13:33;;;;;;;19.50;10.52;;;;;;;;;;4982631;28;20522;-55
2022/01/19 09:15:59;;;;;;;16.42;9.10;;;;;;;;;;4980507;28;20038;-55
2022/01/19 09:18:25;;;;;;;17.33;10.88;;;;;;;;;;4983242;28;20045;-54
2022/01/19 09:20:51;;;;;;;21.73;10.80;;;;;;;;;;4986744;28;20027;-55
2022/01/19 09:23:17;;;;;;;16.95;10.38;;;;;;;;;;4986857;28;20414;-59
2022/01/19 09:25:43;;;;;;;15.50;9.82;;;;;;;;;;4983315;28;20038;-57
2022/01/19 09:28:09;;;;;;;17.88;9.00;;;;;;;;;;4992119;28;20095;-57
2022/01/19 09:30:36;;;;;;;15.88;9.00;;;;;;;;;;4984997;28;20080;-57
2022/01/19 09:33:11;;;;;;;19.20;9.00;;;;;;;;;;4985468;28;20082;-57
2022/01/19 09:38:40;;;;;;;16.75;10.55;;;;;;;;;;4971169;28;20057;-55
2022/01/19 09:41:07;;;;;;;16.33;11.50;;;;;;;;;;4974492;28;20074;-56
2022/01/19 09:43:33;;;;;;;15.15;9.70;;;;;;;;;;4970161;28;20105;-58
2022/01/19 09:46:00;;;;;;;16.55;10.13;;;;;;;;;;4970691;28;20062;-53
2022/01/19 09:48:28;;;;;;;15.73;9.80;;;;;;;;;;4972561;28;20477;-57
2022/01/19 09:50:56;;;;;;;18.00;10.73;;;;;;;;;;4972688;28;20474;-58
2022/01/19 09:53:22;;;;;;;16.45;9.68;;;;;;;;;;4974286;28;20031;-57
2022/01/19 09:55:48;;;;;;;19.50;9.80;;;;;;;;;;4970609;28;20151;-57
2022/01/19 09:58:17;;;;;;;15.95;10.32;;;;;;;;;;4971520;28;20430;-53
2022/01/19 10:00:43;;;;;;;13.52;9.02;;;;;;;;;;4970429;28;20043;-57
2022/01/19 10:03:24;;;;;;;20.88;10.57;;;;;;;;;;4970668;28;20497;-53
2022/01/19 10:05:56;;;;;;;16.05;10.02;;;;;;;;;;4974676;28;20640;-57
2022/01/19 10:08:33;;;;;;;14.73;9.77;;;;;;;;;;4973887;28;20101;-59
2022/01/19 10:11:20;;;;;;;12.38;9.82;;;;;;;;;;4968707;28;20145;-57
2022/01/19 10:16:59;;;;;;;17.98;8.48;;;;;;;;;;4987993;28;20029;-58
2022/01/19 10:19:30;;;;;;;12.05;8.77;;;;;;;;;;4986057;28;20457;-57
2022/01/19 10:21:57;;;;;;;15.00;10.05;;;;;;;;;;4983133;28;20406;-56
2022/01/19 10:24:36;;;;;;;15.20;9.90;;;;;;;;;;4985658;28;20430;-55
2022/01/19 10:27:23;;;;;;;14.45;9.75;;;;;;;;;;4990113;28;20034;-53
2022/01/19 10:30:04;;;;;;;13.80;8.73;;;;;;;;;;4986896;28;20031;-55
2022/01/19 10:32:42;;;;;;;22.30;9.75;;;;;;;;;;4992235;28;20390;-58
2022/01/19 10:35:19;;;;;;;23.58;12.93;;;;;;;;;;4987288;28;20498;-56
2022/01/19 10:37:47;;;;;;;17.23;11.15;;;;;;;;;;4987920;28;20065;-58
2022/01/19 10:40:18;;;;;;;26.13;13.55;;;;;;;;;;4984174;28;20091;-55
2022/01/19 10:42:46;;;;;;;39.97;21.27;;;;;;;;;;4991842;28;20034;-54
2022/01/19 10:45:13;;;;;;;19.35;10.82;;;;;;;;;;4991884;28;20687;-58
2022/01/19 10:47:55;;;;;;;17.58;10.52;;;;;;;;;;4985191;28;20033;-59
2022/01/19 10:50:28;;;;;;;22.38;15.13;;;;;;;;;;4985608;28;20446;-58
2022/01/19 10:52:55;;;;;;;32.72;17.67;;;;;;;;;;4983104;28;20033;-59
2022/01/19 10:55:20;;;;;;;34.83;19.13;;;;;;;;;;4984260;28;20534;-56
2022/01/19 10:57:48;;;;;;;27.33;17.08;;;;;;;;;;4982275;28;20069;-59
2022/01/19 11:00:29;;;;;;;24.55;12.38;;;;;;;;;;4985395;28;20053;-55
2022/01/19 11:03:13;;;;;;;28.77;12.70;;;;;;;;;;4988077;28;20056;-59
2022/01/19 11:05:46;;;;;;;19.13;12.25;;;;;;;;;;4983280;28;20468;-59
2022/01/19 11:08:13;;;;;;;37.40;18.98;;;;;;;;;;4981752;28;20407;-59
2022/01/19 11:10:39;;;;;;;29.38;16.55;;;;;;;;;;4990625;28;20030;-59
2022/01/19 11:13:13;;;;;;;20.85;13.07;;;;;;;;;;4996961;28;20042;-58
2022/01/19 11:15:39;;;;;;;25.05;12.65;;;;;;;;;;4985458;28;20066;-57
2022/01/19 11:18:05;;;;;;;19.90;12.77;;;;;;;;;;4983073;28;20046;-57
2022/01/19 11:20:40;;;;;;;21.33;12.23;;;;;;;;;;4980017;28;20034;-55
2022/01/19 11:23:38;;;;;;;19.85;12.52;;;;;;;;;;4979944;28;20068;-57
2022/01/19 11:26:09;;;;;;;19.48;11.25;;;;;;;;;;4990460;28;20030;-58
2022/01/19 11:28:38;;;;;;;19.70;11.60;;;;;;;;;;4985950;28;20030;-57
2022/01/19 11:31:19;;;;;;;17.52;11.35;;;;;;;;;;4986218;28;20462;-58
2022/01/19 11:33:47;;;;;;;17.13;11.20;;;;;;;;;;4979296;28;20029;-59
2022/01/19 11:36:19;;;;;;;19.50;12.27;;;;;;;;;;4982122;28;20666;-58
2022/01/19 11:38:48;;;;;;;24.45;14.25;;;;;;;;;;4985009;28;20704;-58
2022/01/19 11:41:13;;;;;;;25.02;13.77;;;;;;;;;;4984331;28;20035;-57
2022/01/19 11:43:50;;;;;;;21.85;14.00;;;;;;;;;;4982832;28;20462;-59
2022/01/19 11:46:39;;;;;;;28.13;17.67;;;;;;;;;;4981439;28;20030;-57
2022/01/19 11:49:08;;;;;;;25.42;15.95;;;;;;;;;;4980971;28;20113;-58
2022/01/19 11:51:35;;;;;;;21.08;11.93;;;;;;;;;;4980882;28;20034;-59
2022/01/19 11:54:12;;;;;;;33.97;18.08;;;;;;;;;;4981013;28;20023;-57
2022/01/19 11:57:00;;;;;;;23.67;16.42;;;;;;;;;;4984550;28;20042;-58
2022/01/19 11:59:34;;;;;;;22.98;13.32;;;;;;;;;;4982306;28;20027;-57
2022/01/19 12:02:19;;;;;;;27.10;14.23;;;;;;;;;;4982793;28;20046;-56
2022/01/19 12:04:45;;;;;;;19.33;12.30;;;;;;;;;;4981675;28;20041;-56
2022/01/19 12:07:37;;;;;;;23.02;13.60;;;;;;;;;;4987052;28;20023;-57
2022/01/19 12:10:07;;;;;;;29.80;16.50;;;;;;;;;;4981119;28;20029;-57
2022/01/19 12:12:39;;;;;;;45.90;24.95;;;;;;;;;;4980866;28;20479;-58
2022/01/19 12:15:08;;;;;;;22.60;14.43;;;;;;;;;;4983447;28;20198;-58
2022/01/19 12:17:57;;;;;;;19.13;12.45;;;;;;;;;;4979891;28;20030;-57
2022/01/19 12:20:52;;;;;;;23.35;12.20;;;;;;;;;;4982426;28;20720;-58
2022/01/19 12:23:27;;;;;;;26.70;16.08;;;;;;;;;;4982059;28;20098;-55
2022/01/19 12:25:54;;;;;;;16.52;13.93;;;;;;;;;;4989296;28;20032;-56
2022/01/19 12:28:49;;;;;;;19.48;11.10;;;;;;;;;;4980435;28;20408;-57
2022/01/19 12:31:25;;;;;;;18.23;11.15;;;;;;;;;;4980569;28;20037;-56
2022/01/19 12:34:02;;;;;;;18.38;11.60;;;;;;;;;;4983040;28;20052;-56
2022/01/19 12:36:58;;;;;;;16.05;11.23;;;;;;;;;;4982248;28;20494;-57
2022/01/19 12:39:26;;;;;;;17.17;10.88;;;;;;;;;;4981776;28;20034;-58
2022/01/19 12:42:04;;;;;;;17.92;9.60;;;;;;;;;;4980437;28;20038;-58
2022/01/19 12:44:35;;;;;;;14.32;9.60;;;;;;;;;;4980763;28;20202;-58
2022/01/19 12:47:03;;;;;;;13.85;10.07;;;;;;;;;;4983463;28;20056;-57
2022/01/19 12:49:31;;;;;;;21.90;10.77;;;;;;;;;;4985667;28;20153;-57
2022/01/19 12:51:58;;;;;;;17.80;9.88;;;;;;;;;;4986431;28;20134;-55
2022/01/19 12:54:32;;;;;;;19.73;11.40;;;;;;;;;;4988567;28;20038;-57
2022/01/19 12:57:02;;;;;;;15.30;8.77;;;;;;;;;;4980923;28;20022;-52
2022/01/19 12:59:28;;;;;;;19.10;11.35;;;;;;;;;;4984277;28;20035;-57
2022/01/19 13:01:55;;;;;;;15.32;9.05;;;;;;;;;;4981661;28;20029;-57
2022/01/19 13:04:29;;;;;;;20.83;10.10;;;;;;;;;;4987206;28;20038;-54
2022/01/19 13:06:57;;;;;;;16.95;9.23;;;;;;;;;;4986356;28;20038;-58
2022/01/19 13:09:34;;;;;;;18.02;10.05;;;;;;;;;;4982728;28;20097;-55
2022/01/19 13:12:11;;;;;;;18.45;9.75;;;;;;;;;;4976645;28;20694;-57
2022/01/19 13:14:37;;;;;;;16.75;10.48;;;;;;;;;;4989887;28;20047;-56
2022/01/19 13:17:03;;;;;;;19.23;10.18;;;;;;;;;;4988544;28;20030;-57
2022/01/19 13:19:29;;;;;;;19.05;11.77;;;;;;;;;;4981884;28;20123;-58
2022/01/19 13:22:01;;;;;;;21.92;11.20;;;;;;;;;;4980868;28;20059;-52
2022/01/19 13:24:29;;;;;;;15.40;10.38;;;;;;;;;;4976515;28;20457;-57
2022/01/19 13:27:06;;;;;;;25.73;14.50;;;;;;;;;;4982102;28;20126;-57
2022/01/19 13:29:37;;;;;;;24.23;12.07;;;;;;;;;;5001347;28;20502;-57
2022/01/19 13:32:12;;;;;;;24.15;12.55;;;;;;;;;;4988028;28;20494;-55
2022/01/19 13:34:50;;;;;;;30.73;16.20;;;;;;;;;;4983310;28;20032;-55
2022/01/19 13:37:17;;;;;;;30.27;17.75;;;;;;;;;;4998900;28;20030;-57
2022/01/19 13:39:42;;;;;;;30.48;16.60;;;;;;;;;;4983780;28;20104;-56
2022/01/19 13:42:08;;;;;;;21.73;11.60;;;;;;;;;;4990236;28;20034;-58
2022/01/19 13:44:36;;;;;;;27.17;15.18;;;;;;;;;;4990056;28;20480;-57
2022/01/19 13:47:14;;;;;;;20.60;13.43;;;;;;;;;;4983549;28;20038;-57
2022/01/19 13:49:40;;;;;;;24.67;15.77;;;;;;;;;;4983705;28;20038;-59
2022/01/19 13:52:09;;;;;;;25.73;16.27;;;;;;;;;;4989258;28;20386;-56
2022/01/19 13:54:40;;;;;;;29.90;20.30;;;;;;;;;;4986650;28;20023;-56
2022/01/19 13:57:06;;;;;;;34.47;21.23;;;;;;;;;;4993023;28;20901;-56
2022/01/19 13:59:32;;;;;;;22.65;14.80;;;;;;;;;;4990710;28;20027;-56
2022/01/19 14:02:00;;;;;;;25.83;17.23;;;;;;;;;;4989735;28;20368;-56
2022/01/19 14:04:28;;;;;;;25.55;15.40;;;;;;;;;;4994252;28;20057;-58
2022/01/19 14:07:03;;;;;;;18.92;11.57;;;;;;;;;;4983398;28;20030;-58
2022/01/19 14:09:31;;;;;;;20.80;11.23;;;;;;;;;;4983505;28;20045;-58
2022/01/19 14:12:00;;;;;;;17.90;11.00;;;;;;;;;;4988487;28;20763;-58
2022/01/19 14:14:42;;;;;;;16.20;9.75;;;;;;;;;;4991757;28;20187;-59
2022/01/19 14:17:10;;;;;;;19.63;10.40;;;;;;;;;;4993241;28;20034;-56
2022/01/19 14:19:48;;;;;;;18.35;11.43;;;;;;;;;;4991134;28;20050;-55
2022/01/19 14:22:26;;;;;;;14.73;10.35;;;;;;;;;;4977750;28;20125;-58
2022/01/19 14:25:02;;;;;;;13.88;10.70;;;;;;;;;;4984302;28;20030;-58
2022/01/19 14:27:30;;;;;;;23.02;11.13;;;;;;;;;;4984109;28;20030;-58
2022/01/19 14:29:58;;;;;;;18.23;10.15;;;;;;;;;;4987032;28;20049;-58
2022/01/19 14:32:46;;;;;;;17.98;10.52;;;;;;;;;;4984488;28;20045;-58
2022/01/19 14:35:34;;;;;;;47.30;25.25;;;;;;;;;;4984531;28;20034;-57
2022/01/19 14:38:21;;;;;;;51.15;24.00;;;;;;;;;;4980521;28;20131;-58
2022/01/19 14:40:59;;;;;;;45.40;24.70;;;;;;;;;;4989834;28;20485;-55
2022/01/19 14:43:48;;;;;;;37.38;22.77;;;;;;;;;;4986604;28;20035;-57
2022/01/19 14:46:24;;;;;;;39.33;21.77;;;;;;;;;;4987941;28;20109;-58
2022/01/19 14:48:50;;;;;;;30.60;19.70;;;;;;;;;;4991073;28;20886;-59
2022/01/19 14:51:28;;;;;;;51.13;22.13;;;;;;;;;;4983573;28;20026;-59
2022/01/19 14:53:56;;;;;;;45.53;23.58;;;;;;;;;;4981733;28;20023;-57
2022/01/19 14:56:23;;;;;;;41.08;22.25;;;;;;;;;;4994557;28;20463;-58
2022/01/19 14:59:18;;;;;;;43.05;23.23;;;;;;;;;;4992754;28;20033;-58
2022/01/19 15:01:47;;;;;;;44.08;24.50;;;;;;;;;;4978708;28;20519;-58
2022/01/19 15:04:13;;;;;;;41.92;24.42;;;;;;;;;;4983935;28;20034;-58
2022/01/19 15:06:40;;;;;;;47.08;24.85;;;;;;;;;;4984559;28;20077;-58
2022/01/19 15:09:10;;;;;;;40.10;22.05;;;;;;;;;;4988147;28;20025;-59
2022/01/19 15:11:36;;;;;;;31.98;19.92;;;;;;;;;;4985232;28;20029;-58
2022/01/19 15:14:03;;;;;;;31.33;18.88;;;;;;;;;;4985420;28;20042;-58
2022/01/19 15:16:29;;;;;;;25.85;17.08;;;;;;;;;;4985948;28;20503;-58
2022/01/19 15:18:55;;;;;;;33.25;17.83;;;;;;;;;;4983588;28;20134;-58
2022/01/19 15:21:20;;;;;;;31.05;17.70;;;;;;;;;;4983588;28;20121;-58
2022/01/19 15:23:49;;;;;;;29.73;18.05;;;;;;;;;;4990644;28;20054;-59
2022/01/19 15:26:15;;;;;;;38.88;19.38;;;;;;;;;;4981464;28;20046;-60
2022/01/19 15:28:40;;;;;;;36.95;21.10;;;;;;;;;;4985100;28;20092;-59
2022/01/19 15:31:08;;;;;;;40.38;21.15;;;;;;;;;;4982313;28;20038;-59
2022/01/19 15:33:34;;;;;;;34.88;20.83;;;;;;;;;;4988394;28;20030;-59
2022/01/19 15:36:01;;;;;;;36.85;21.83;;;;;;;;;;4983938;28;20394;-58
2022/01/19 15:38:27;;;;;;;41.83;20.45;;;;;;;;;;4989074;28;20088;-55
2022/01/19 15:40:53;;;;;;;36.45;20.98;;;;;;;;;;4994737;28;20038;-58
2022/01/19 15:43:19;;;;;;;37.70;22.58;;;;;;;;;;4983618;28;20486;-56
2022/01/19 15:45:47;;;;;;;34.08;21.08;;;;;;;;;;4982683;28;20061;-57
2022/01/19 15:48:16;;;;;;;35.28;22.10;;;;;;;;;;4985454;28;20031;-58
2022/01/19 15:50:48;;;;;;;38.53;22.63;;;;;;;;;;4991193;28;20057;-56
2022/01/19 15:53:15;;;;;;;39.50;24.42;;;;;;;;;;4978806;28;20372;-58
2022/01/19 15:55:41;;;;;;;45.13;25.90;;;;;;;;;;4984818;28;20044;-55
2022/01/19 15:58:07;;;;;;;42.58;26.48;;;;;;;;;;4992963;28;20025;-56
2022/01/19 16:00:34;;;;;;;45.58;26.75;;;;;;;;;;4979638;28;20129;-58